sensor_id;sensor_type;location;lat;lon;timestamp;P1;durP1;ratioP1;P2;durP2;ratioP2
66633;SDS011;53546;52.184;5.596;2022-11-23T00:01:35;3.40;;;1.48;;
66633;SDS011;53546;52.184;5.596;2022-11-23T00:04:02;4.18;;;1.70;;
66633;SDS011;53546;52.184;5.596;2022-11-23T00:06:29;4.07;;;1.60;;
66633;SDS011;53546;52.184;5.596;2022-11-23T00:08:55;5.65;;;1.63;;
66633;SDS011;53546;52.184;5.596;2022-11-23T00:11:21;3.05;;;1.52;;
66633;SDS011;53546;52.184;5.596;2022-11-23T00:13:47;3.53;;;1.73;;
66633;SDS011;53546;52.184;5.596;2022-11-23T00:16:17;9.40;;;1.63;;
66633;SDS011;53546;52.184;5.596;2022-11-23T00:18:47;2.50;;;1.45;;
66633;SDS011;53546;52.184;5.596;2022-11-23T00:21:15;8.63;;;1.90;;
66633;SDS011;53546;52.184;5.596;2022-11-23T00:23:41;4.55;;;2.00;;
66633;SDS011;53546;52.184;5.596;2022-11-23T00:26:07;3.78;;;1.55;;
66633;SDS011;53546;52.184;5.596;2022-11-23T00:28:33;11.05;;;2.03;;
66633;SDS011;53546;52.184;5.596;2022-11-23T00:31:04;6.18;;;1.77;;
66633;SDS011;53546;52.184;5.596;2022-11-23T00:33:30;2.50;;;1.40;;
66633;SDS011;53546;52.184;5.596;2022-11-23T00:36:02;3.72;;;1.67;;
66633;SDS011;53546;52.184;5.596;2022-11-23T00:38:29;6.25;;;1.90;;
66633;SDS011;53546;52.184;5.596;2022-11-23T00:40:59;4.72;;;1.60;;
66633;SDS011;53546;52.184;5.596;2022-11-23T00:43:24;2.88;;;2.00;;
66633;SDS011;53546;52.184;5.596;2022-11-23T00:46:00;4.78;;;2.10;;
66633;SDS011;53546;52.184;5.596;2022-11-23T00:48:29;2.95;;;1.60;;
66633;SDS011;53546;52.184;5.596;2022-11-23T00:50:54;5.20;;;1.95;;
66633;SDS011;53546;52.184;5.596;2022-11-23T00:53:20;5.68;;;2.03;;
66633;SDS011;53546;52.184;5.596;2022-11-23T00:55:51;3.33;;;1.88;;
66633;SDS011;53546;52.184;5.596;2022-11-23T00:58:18;5.28;;;2.13;;
66633;SDS011;53546;52.184;5.596;2022-11-23T01:00:43;5.40;;;2.03;;
66633;SDS011;53546;52.184;5.596;2022-11-23T01:03:08;4.28;;;2.20;;
66633;SDS011;53546;52.184;5.596;2022-11-23T01:05:37;3.42;;;1.83;;
66633;SDS011;53546;52.184;5.596;2022-11-23T01:08:03;6.15;;;2.53;;
66633;SDS011;53546;52.184;5.596;2022-11-23T01:10:29;5.60;;;1.90;;
66633;SDS011;53546;52.184;5.596;2022-11-23T01:12:54;3.88;;;2.15;;
66633;SDS011;53546;52.184;5.596;2022-11-23T01:15:20;6.32;;;2.30;;
66633;SDS011;53546;52.184;5.596;2022-11-23T01:17:45;4.65;;;2.20;;
66633;SDS011;53546;52.184;5.596;2022-11-23T01:20:10;6.38;;;2.15;;
66633;SDS011;53546;52.184;5.596;2022-11-23T01:22:36;6.32;;;2.45;;
66633;SDS011;53546;52.184;5.596;2022-11-23T01:25:01;4.80;;;2.10;;
66633;SDS011;53546;52.184;5.596;2022-11-23T01:27:27;4.45;;;2.40;;
66633;SDS011;53546;52.184;5.596;2022-11-23T01:29:52;4.55;;;2.13;;
66633;SDS011;53546;52.184;5.596;2022-11-23T01:32:17;4.15;;;2.50;;
66633;SDS011;53546;52.184;5.596;2022-11-23T01:34:43;5.88;;;2.03;;
66633;SDS011;53546;52.184;5.596;2022-11-23T01:37:08;4.72;;;2.22;;
66633;SDS011;53546;52.184;5.596;2022-11-23T01:39:33;9.07;;;2.28;;
66633;SDS011;53546;52.184;5.596;2022-11-23T01:41:59;4.45;;;2.42;;
66633;SDS011;53546;52.184;5.596;2022-11-23T01:44:31;8.02;;;2.60;;
66633;SDS011;53546;52.184;5.596;2022-11-23T01:46:58;8.93;;;2.60;;
66633;SDS011;53546;52.184;5.596;2022-11-23T01:49:26;6.75;;;2.47;;
66633;SDS011;53546;52.184;5.596;2022-11-23T01:51:55;6.35;;;2.38;;
66633;SDS011;53546;52.184;5.596;2022-11-23T01:54:24;2.92;;;2.15;;
66633;SDS011;53546;52.184;5.596;2022-11-23T01:57:07;5.68;;;2.65;;
66633;SDS011;53546;52.184;5.596;2022-11-23T01:59:41;5.22;;;2.60;;
66633;SDS011;53546;52.184;5.596;2022-11-23T02:02:07;6.50;;;2.58;;
66633;SDS011;53546;52.184;5.596;2022-11-23T02:04:34;9.55;;;2.53;;
66633;SDS011;53546;52.184;5.596;2022-11-23T02:07:02;3.85;;;2.58;;
66633;SDS011;53546;52.184;5.596;2022-11-23T02:09:30;4.95;;;2.80;;
66633;SDS011;53546;52.184;5.596;2022-11-23T02:11:57;9.18;;;3.00;;
66633;SDS011;53546;52.184;5.596;2022-11-23T02:14:23;5.10;;;2.45;;
66633;SDS011;53546;52.184;5.596;2022-11-23T02:16:48;5.68;;;2.30;;
66633;SDS011;53546;52.184;5.596;2022-11-23T02:28:04;4.10;;;2.60;;
66633;SDS011;53546;52.184;5.596;2022-11-23T02:30:30;6.82;;;2.53;;
66633;SDS011;53546;52.184;5.596;2022-11-23T02:32:56;6.90;;;2.40;;
66633;SDS011;53546;52.184;5.596;2022-11-23T02:35:21;4.30;;;2.35;;
66633;SDS011;53546;52.184;5.596;2022-11-23T02:37:46;5.28;;;2.85;;
66633;SDS011;53546;52.184;5.596;2022-11-23T02:40:22;6.43;;;2.63;;
66633;SDS011;53546;52.184;5.596;2022-11-23T02:42:52;6.18;;;2.33;;
66633;SDS011;53546;52.184;5.596;2022-11-23T02:45:22;5.72;;;2.60;;
66633;SDS011;53546;52.184;5.596;2022-11-23T02:48:01;5.88;;;2.70;;
66633;SDS011;53546;52.184;5.596;2022-11-23T02:50:27;5.82;;;3.17;;
66633;SDS011;53546;52.184;5.596;2022-11-23T02:52:52;6.57;;;2.55;;
66633;SDS011;53546;52.184;5.596;2022-11-23T02:55:17;5.80;;;2.88;;
66633;SDS011;53546;52.184;5.596;2022-11-23T02:57:43;4.78;;;2.67;;
66633;SDS011;53546;52.184;5.596;2022-11-23T03:00:08;5.30;;;2.63;;
66633;SDS011;53546;52.184;5.596;2022-11-23T03:02:34;4.55;;;2.30;;
66633;SDS011;53546;52.184;5.596;2022-11-23T03:04:59;4.97;;;2.45;;
66633;SDS011;53546;52.184;5.596;2022-11-23T03:07:25;4.22;;;2.63;;
66633;SDS011;53546;52.184;5.596;2022-11-23T03:09:50;4.63;;;2.42;;
66633;SDS011;53546;52.184;5.596;2022-11-23T03:12:16;5.78;;;2.55;;
66633;SDS011;53546;52.184;5.596;2022-11-23T03:14:41;4.28;;;2.38;;
66633;SDS011;53546;52.184;5.596;2022-11-23T03:17:06;3.75;;;2.15;;
66633;SDS011;53546;52.184;5.596;2022-11-23T03:19:32;4.60;;;2.30;;
66633;SDS011;53546;52.184;5.596;2022-11-23T03:21:57;5.65;;;2.40;;
66633;SDS011;53546;52.184;5.596;2022-11-23T03:24:22;5.43;;;2.33;;
66633;SDS011;53546;52.184;5.596;2022-11-23T03:26:48;5.85;;;2.53;;
66633;SDS011;53546;52.184;5.596;2022-11-23T03:29:13;4.97;;;2.70;;
66633;SDS011;53546;52.184;5.596;2022-11-23T03:31:39;3.25;;;2.10;;
66633;SDS011;53546;52.184;5.596;2022-11-23T03:34:04;7.63;;;2.42;;
66633;SDS011;53546;52.184;5.596;2022-11-23T03:36:30;7.10;;;2.30;;
66633;SDS011;53546;52.184;5.596;2022-11-23T03:38:55;6.28;;;2.50;;
66633;SDS011;53546;52.184;5.596;2022-11-23T03:41:20;3.55;;;2.05;;
66633;SDS011;53546;52.184;5.596;2022-11-23T03:43:46;4.70;;;2.25;;
66633;SDS011;53546;52.184;5.596;2022-11-23T03:46:12;5.72;;;2.08;;
66633;SDS011;53546;52.184;5.596;2022-11-23T03:48:37;5.35;;;2.53;;
66633;SDS011;53546;52.184;5.596;2022-11-23T03:51:02;4.57;;;2.47;;
66633;SDS011;53546;52.184;5.596;2022-11-23T03:53:28;3.92;;;2.10;;
66633;SDS011;53546;52.184;5.596;2022-11-23T03:55:53;5.57;;;2.22;;
66633;SDS011;53546;52.184;5.596;2022-11-23T03:58:21;5.20;;;2.38;;
66633;SDS011;53546;52.184;5.596;2022-11-23T04:00:46;4.03;;;2.15;;
66633;SDS011;53546;52.184;5.596;2022-11-23T04:03:12;6.18;;;2.17;;
66633;SDS011;53546;52.184;5.596;2022-11-23T04:05:37;5.13;;;1.98;;
66633;SDS011;53546;52.184;5.596;2022-11-23T04:08:03;3.75;;;2.30;;
66633;SDS011;53546;52.184;5.596;2022-11-23T04:10:28;5.35;;;2.15;;
66633;SDS011;53546;52.184;5.596;2022-11-23T04:12:54;3.63;;;1.70;;
66633;SDS011;53546;52.184;5.596;2022-11-23T04:15:19;4.57;;;2.10;;
66633;SDS011;53546;52.184;5.596;2022-11-23T04:17:44;4.68;;;2.13;;
66633;SDS011;53546;52.184;5.596;2022-11-23T04:20:10;4.38;;;1.80;;
66633;SDS011;53546;52.184;5.596;2022-11-23T04:22:36;4.32;;;1.90;;
66633;SDS011;53546;52.184;5.596;2022-11-23T04:25:01;5.88;;;1.98;;
66633;SDS011;53546;52.184;5.596;2022-11-23T04:27:27;6.00;;;1.77;;
66633;SDS011;53546;52.184;5.596;2022-11-23T04:29:52;4.63;;;2.03;;
66633;SDS011;53546;52.184;5.596;2022-11-23T04:32:17;3.50;;;1.88;;
66633;SDS011;53546;52.184;5.596;2022-11-23T04:34:43;2.42;;;1.63;;
66633;SDS011;53546;52.184;5.596;2022-11-23T04:37:08;3.75;;;1.80;;
66633;SDS011;53546;52.184;5.596;2022-11-23T04:39:33;5.95;;;1.70;;
66633;SDS011;53546;52.184;5.596;2022-11-23T04:41:59;2.58;;;1.80;;
66633;SDS011;53546;52.184;5.596;2022-11-23T04:44:24;2.63;;;1.63;;
66633;SDS011;53546;52.184;5.596;2022-11-23T04:46:49;4.95;;;1.65;;
66633;SDS011;53546;52.184;5.596;2022-11-23T04:49:15;6.90;;;1.95;;
66633;SDS011;53546;52.184;5.596;2022-11-23T04:51:41;3.67;;;1.63;;
66633;SDS011;53546;52.184;5.596;2022-11-23T04:54:06;3.95;;;1.80;;
66633;SDS011;53546;52.184;5.596;2022-11-23T04:56:32;4.40;;;1.90;;
66633;SDS011;53546;52.184;5.596;2022-11-23T04:58:57;4.30;;;1.88;;
66633;SDS011;53546;52.184;5.596;2022-11-23T05:01:22;2.90;;;1.60;;
66633;SDS011;53546;52.184;5.596;2022-11-23T05:03:48;4.30;;;1.80;;
66633;SDS011;53546;52.184;5.596;2022-11-23T05:06:13;4.78;;;1.58;;
66633;SDS011;53546;52.184;5.596;2022-11-23T05:08:38;10.63;;;2.60;;
66633;SDS011;53546;52.184;5.596;2022-11-23T05:11:04;3.75;;;1.70;;
66633;SDS011;53546;52.184;5.596;2022-11-23T05:13:29;3.40;;;1.60;;
66633;SDS011;53546;52.184;5.596;2022-11-23T05:15:55;2.85;;;1.73;;
66633;SDS011;53546;52.184;5.596;2022-11-23T05:18:20;3.78;;;1.45;;
66633;SDS011;53546;52.184;5.596;2022-11-23T05:20:45;5.05;;;2.03;;
66633;SDS011;53546;52.184;5.596;2022-11-23T05:23:11;4.43;;;1.77;;
66633;SDS011;53546;52.184;5.596;2022-11-23T05:25:36;2.08;;;1.42;;
66633;SDS011;53546;52.184;5.596;2022-11-23T05:28:02;4.03;;;1.70;;
66633;SDS011;53546;52.184;5.596;2022-11-23T05:30:28;4.03;;;1.73;;
66633;SDS011;53546;52.184;5.596;2022-11-23T05:32:53;3.88;;;1.80;;
66633;SDS011;53546;52.184;5.596;2022-11-23T05:35:18;12.70;;;2.03;;
66633;SDS011;53546;52.184;5.596;2022-11-23T05:37:44;11.18;;;2.15;;
66633;SDS011;53546;52.184;5.596;2022-11-23T05:40:09;5.68;;;1.90;;
66633;SDS011;53546;52.184;5.596;2022-11-23T05:42:35;5.10;;;2.08;;
66633;SDS011;53546;52.184;5.596;2022-11-23T05:45:00;5.55;;;2.00;;
66633;SDS011;53546;52.184;5.596;2022-11-23T05:47:26;6.15;;;1.65;;
66633;SDS011;53546;52.184;5.596;2022-11-23T05:49:51;8.30;;;2.88;;
66633;SDS011;53546;52.184;5.596;2022-11-23T05:52:17;13.32;;;2.33;;
66633;SDS011;53546;52.184;5.596;2022-11-23T05:54:42;12.30;;;2.60;;
66633;SDS011;53546;52.184;5.596;2022-11-23T05:57:08;11.50;;;2.47;;
66633;SDS011;53546;52.184;5.596;2022-11-23T05:59:34;11.95;;;2.70;;
66633;SDS011;53546;52.184;5.596;2022-11-23T06:01:59;11.38;;;2.30;;
66633;SDS011;53546;52.184;5.596;2022-11-23T06:04:25;6.80;;;2.10;;
66633;SDS011;53546;52.184;5.596;2022-11-23T06:06:50;11.98;;;2.80;;
66633;SDS011;53546;52.184;5.596;2022-11-23T06:09:19;7.32;;;2.28;;
66633;SDS011;53546;52.184;5.596;2022-11-23T06:11:44;8.98;;;2.55;;
66633;SDS011;53546;52.184;5.596;2022-11-23T06:14:12;19.77;;;3.22;;
66633;SDS011;53546;52.184;5.596;2022-11-23T06:16:37;20.50;;;3.40;;
66633;SDS011;53546;52.184;5.596;2022-11-23T06:19:03;12.55;;;2.95;;
66633;SDS011;53546;52.184;5.596;2022-11-23T06:21:28;13.73;;;2.92;;
66633;SDS011;53546;52.184;5.596;2022-11-23T06:23:54;11.48;;;3.00;;
66633;SDS011;53546;52.184;5.596;2022-11-23T06:26:19;11.95;;;2.72;;
66633;SDS011;53546;52.184;5.596;2022-11-23T06:28:45;12.70;;;2.88;;
66633;SDS011;53546;52.184;5.596;2022-11-23T06:31:10;20.95;;;2.13;;
66633;SDS011;53546;52.184;5.596;2022-11-23T06:33:36;15.82;;;2.60;;
66633;SDS011;53546;52.184;5.596;2022-11-23T06:36:02;8.80;;;2.60;;
66633;SDS011;53546;52.184;5.596;2022-11-23T06:38:28;10.45;;;2.45;;
66633;SDS011;53546;52.184;5.596;2022-11-23T06:40:57;7.70;;;2.50;;
66633;SDS011;53546;52.184;5.596;2022-11-23T06:43:23;10.10;;;2.20;;
66633;SDS011;53546;52.184;5.596;2022-11-23T06:45:49;10.95;;;2.72;;
66633;SDS011;53546;52.184;5.596;2022-11-23T06:48:14;12.10;;;2.35;;
66633;SDS011;53546;52.184;5.596;2022-11-23T06:50:40;7.93;;;2.17;;
66633;SDS011;53546;52.184;5.596;2022-11-23T06:53:05;7.43;;;2.30;;
66633;SDS011;53546;52.184;5.596;2022-11-23T06:55:31;10.32;;;2.17;;
66633;SDS011;53546;52.184;5.596;2022-11-23T06:57:56;6.25;;;2.05;;
66633;SDS011;53546;52.184;5.596;2022-11-23T07:00:23;5.25;;;2.00;;
66633;SDS011;53546;52.184;5.596;2022-11-23T07:02:52;6.30;;;2.05;;
66633;SDS011;53546;52.184;5.596;2022-11-23T07:05:18;7.45;;;1.88;;
66633;SDS011;53546;52.184;5.596;2022-11-23T07:07:43;4.40;;;1.85;;
66633;SDS011;53546;52.184;5.596;2022-11-23T07:10:09;6.88;;;1.80;;
66633;SDS011;53546;52.184;5.596;2022-11-23T07:12:34;13.80;;;2.00;;
66633;SDS011;53546;52.184;5.596;2022-11-23T07:15:00;8.40;;;1.83;;
66633;SDS011;53546;52.184;5.596;2022-11-23T07:17:25;10.32;;;2.22;;
66633;SDS011;53546;52.184;5.596;2022-11-23T07:19:50;5.65;;;1.75;;
66633;SDS011;53546;52.184;5.596;2022-11-23T07:22:16;9.05;;;1.98;;
66633;SDS011;53546;52.184;5.596;2022-11-23T07:24:41;11.50;;;2.25;;
66633;SDS011;53546;52.184;5.596;2022-11-23T07:27:07;8.77;;;1.95;;
66633;SDS011;53546;52.184;5.596;2022-11-23T07:29:32;6.07;;;1.65;;
66633;SDS011;53546;52.184;5.596;2022-11-23T07:31:58;5.90;;;1.80;;
66633;SDS011;53546;52.184;5.596;2022-11-23T07:34:24;4.38;;;1.70;;
66633;SDS011;53546;52.184;5.596;2022-11-23T07:36:49;5.18;;;1.70;;
66633;SDS011;53546;52.184;5.596;2022-11-23T07:39:15;2.83;;;1.50;;
66633;SDS011;53546;52.184;5.596;2022-11-23T07:41:40;6.10;;;1.73;;
66633;SDS011;53546;52.184;5.596;2022-11-23T07:44:05;3.97;;;1.67;;
66633;SDS011;53546;52.184;5.596;2022-11-23T07:46:31;7.85;;;1.85;;
66633;SDS011;53546;52.184;5.596;2022-11-23T07:48:56;9.00;;;1.90;;
66633;SDS011;53546;52.184;5.596;2022-11-23T07:51:26;4.82;;;1.65;;
66633;SDS011;53546;52.184;5.596;2022-11-23T07:53:52;3.97;;;1.80;;
66633;SDS011;53546;52.184;5.596;2022-11-23T07:56:17;4.13;;;1.52;;
66633;SDS011;53546;52.184;5.596;2022-11-23T07:58:43;8.85;;;1.70;;
66633;SDS011;53546;52.184;5.596;2022-11-23T08:01:08;4.75;;;1.70;;
66633;SDS011;53546;52.184;5.596;2022-11-23T08:03:35;10.68;;;2.25;;
66633;SDS011;53546;52.184;5.596;2022-11-23T08:06:01;6.00;;;2.03;;
66633;SDS011;53546;52.184;5.596;2022-11-23T08:08:26;5.72;;;1.48;;
66633;SDS011;53546;52.184;5.596;2022-11-23T08:10:51;6.20;;;1.50;;
66633;SDS011;53546;52.184;5.596;2022-11-23T08:13:17;5.68;;;1.83;;
66633;SDS011;53546;52.184;5.596;2022-11-23T08:15:43;3.65;;;1.70;;
66633;SDS011;53546;52.184;5.596;2022-11-23T08:18:08;3.40;;;1.50;;
66633;SDS011;53546;52.184;5.596;2022-11-23T08:20:33;8.93;;;1.80;;
66633;SDS011;53546;52.184;5.596;2022-11-23T08:22:59;10.52;;;1.88;;
66633;SDS011;53546;52.184;5.596;2022-11-23T08:25:25;7.53;;;1.70;;
66633;SDS011;53546;52.184;5.596;2022-11-23T08:27:55;12.30;;;2.55;;
66633;SDS011;53546;52.184;5.596;2022-11-23T08:30:28;16.27;;;2.00;;
66633;SDS011;53546;52.184;5.596;2022-11-23T08:32:54;4.80;;;1.70;;
66633;SDS011;53546;52.184;5.596;2022-11-23T08:35:20;10.60;;;1.92;;
66633;SDS011;53546;52.184;5.596;2022-11-23T08:37:45;9.10;;;2.30;;
66633;SDS011;53546;52.184;5.596;2022-11-23T08:40:11;6.13;;;1.85;;
66633;SDS011;53546;52.184;5.596;2022-11-23T08:42:37;8.05;;;1.77;;
66633;SDS011;53546;52.184;5.596;2022-11-23T08:45:02;10.02;;;2.00;;
66633;SDS011;53546;52.184;5.596;2022-11-23T08:47:30;7.40;;;1.55;;
66633;SDS011;53546;52.184;5.596;2022-11-23T08:49:55;13.57;;;2.00;;
66633;SDS011;53546;52.184;5.596;2022-11-23T08:52:21;6.20;;;2.10;;
66633;SDS011;53546;52.184;5.596;2022-11-23T08:54:46;6.70;;;1.80;;
66633;SDS011;53546;52.184;5.596;2022-11-23T08:57:12;8.93;;;1.98;;
66633;SDS011;53546;52.184;5.596;2022-11-23T08:59:37;7.57;;;2.08;;
66633;SDS011;53546;52.184;5.596;2022-11-23T09:02:02;8.60;;;2.20;;
66633;SDS011;53546;52.184;5.596;2022-11-23T09:04:28;6.97;;;1.90;;
66633;SDS011;53546;52.184;5.596;2022-11-23T09:06:55;6.57;;;1.95;;
66633;SDS011;53546;52.184;5.596;2022-11-23T09:09:20;6.30;;;2.13;;
66633;SDS011;53546;52.184;5.596;2022-11-23T09:11:46;10.60;;;2.13;;
66633;SDS011;53546;52.184;5.596;2022-11-23T09:14:12;4.28;;;2.00;;
66633;SDS011;53546;52.184;5.596;2022-11-23T09:16:37;6.05;;;2.25;;
66633;SDS011;53546;52.184;5.596;2022-11-23T09:19:03;6.30;;;2.05;;
66633;SDS011;53546;52.184;5.596;2022-11-23T09:21:28;5.63;;;2.05;;
66633;SDS011;53546;52.184;5.596;2022-11-23T09:23:57;4.57;;;1.70;;
66633;SDS011;53546;52.184;5.596;2022-11-23T09:26:23;6.50;;;2.05;;
66633;SDS011;53546;52.184;5.596;2022-11-23T09:28:49;5.68;;;1.67;;
66633;SDS011;53546;52.184;5.596;2022-11-23T09:31:15;5.78;;;1.67;;
66633;SDS011;53546;52.184;5.596;2022-11-23T09:33:40;9.90;;;2.20;;
66633;SDS011;53546;52.184;5.596;2022-11-23T09:36:05;6.57;;;2.05;;
66633;SDS011;53546;52.184;5.596;2022-11-23T09:38:31;8.73;;;2.33;;
66633;SDS011;53546;52.184;5.596;2022-11-23T09:43:44;6.80;;;1.88;;
66633;SDS011;53546;52.184;5.596;2022-11-23T09:46:29;4.82;;;1.58;;
66633;SDS011;53546;52.184;5.596;2022-11-23T09:49:08;4.95;;;1.92;;
66633;SDS011;53546;52.184;5.596;2022-11-23T09:51:37;6.07;;;2.00;;
66633;SDS011;53546;52.184;5.596;2022-11-23T09:54:04;4.88;;;1.83;;
66633;SDS011;53546;52.184;5.596;2022-11-23T09:56:36;7.57;;;1.90;;
66633;SDS011;53546;52.184;5.596;2022-11-23T10:01:55;7.25;;;1.98;;
66633;SDS011;53546;52.184;5.596;2022-11-23T10:04:21;4.85;;;1.92;;
66633;SDS011;53546;52.184;5.596;2022-11-23T10:06:49;6.10;;;1.98;;
66633;SDS011;53546;52.184;5.596;2022-11-23T10:11:58;7.50;;;2.03;;
66633;SDS011;53546;52.184;5.596;2022-11-23T10:17:00;5.45;;;1.90;;
66633;SDS011;53546;52.184;5.596;2022-11-23T10:25:02;7.88;;;1.95;;
66633;SDS011;53546;52.184;5.596;2022-11-23T10:27:37;6.88;;;1.75;;
66633;SDS011;53546;52.184;5.596;2022-11-23T10:30:05;9.85;;;2.13;;
66633;SDS011;53546;52.184;5.596;2022-11-23T10:32:37;5.18;;;1.55;;
66633;SDS011;53546;52.184;5.596;2022-11-23T10:35:12;5.03;;;1.65;;
66633;SDS011;53546;52.184;5.596;2022-11-23T10:37:39;6.25;;;2.10;;
66633;SDS011;53546;52.184;5.596;2022-11-23T10:40:11;6.38;;;1.60;;
66633;SDS011;53546;52.184;5.596;2022-11-23T10:42:42;7.60;;;1.63;;
66633;SDS011;53546;52.184;5.596;2022-11-23T10:45:18;9.15;;;2.00;;
66633;SDS011;53546;52.184;5.596;2022-11-23T10:47:49;7.53;;;1.98;;
66633;SDS011;53546;52.184;5.596;2022-11-23T10:50:24;5.38;;;2.17;;
66633;SDS011;53546;52.184;5.596;2022-11-23T10:53:27;12.25;;;2.20;;
66633;SDS011;53546;52.184;5.596;2022-11-23T10:55:51;5.28;;;1.80;;
66633;SDS011;53546;52.184;5.596;2022-11-23T10:58:26;8.02;;;2.00;;
66633;SDS011;53546;52.184;5.596;2022-11-23T11:00:57;7.57;;;2.35;;
66633;SDS011;53546;52.184;5.596;2022-11-23T11:03:24;7.90;;;1.88;;
66633;SDS011;53546;52.184;5.596;2022-11-23T11:05:50;6.35;;;2.20;;
66633;SDS011;53546;52.184;5.596;2022-11-23T11:08:16;4.82;;;1.92;;
66633;SDS011;53546;52.184;5.596;2022-11-23T11:13:50;5.97;;;1.60;;
66633;SDS011;53546;52.184;5.596;2022-11-23T11:16:35;4.95;;;1.92;;
66633;SDS011;53546;52.184;5.596;2022-11-23T11:21:59;9.98;;;1.60;;
66633;SDS011;53546;52.184;5.596;2022-11-23T11:27:00;9.35;;;1.85;;
66633;SDS011;53546;52.184;5.596;2022-11-23T11:31:56;7.20;;;1.65;;
66633;SDS011;53546;52.184;5.596;2022-11-23T11:34:57;8.23;;;1.85;;
66633;SDS011;53546;52.184;5.596;2022-11-23T11:37:35;3.95;;;1.65;;
66633;SDS011;53546;52.184;5.596;2022-11-23T11:42:58;4.38;;;1.63;;
66633;SDS011;53546;52.184;5.596;2022-11-23T11:45:30;7.18;;;1.65;;
66633;SDS011;53546;52.184;5.596;2022-11-23T11:48:02;5.90;;;1.98;;
66633;SDS011;53546;52.184;5.596;2022-11-23T11:50:35;6.35;;;1.92;;
66633;SDS011;53546;52.184;5.596;2022-11-23T11:53:11;6.78;;;1.88;;
66633;SDS011;53546;52.184;5.596;2022-11-23T11:55:47;6.30;;;2.15;;
66633;SDS011;53546;52.184;5.596;2022-11-23T11:58:23;6.63;;;1.90;;
66633;SDS011;53546;52.184;5.596;2022-11-23T12:00:55;6.57;;;2.00;;
66633;SDS011;53546;52.184;5.596;2022-11-23T12:03:40;4.60;;;1.95;;
66633;SDS011;53546;52.184;5.596;2022-11-23T12:06:32;8.02;;;1.90;;
66633;SDS011;53546;52.184;5.596;2022-11-23T12:09:01;4.80;;;1.98;;
66633;SDS011;53546;52.184;5.596;2022-11-23T12:14:01;8.43;;;2.10;;
66633;SDS011;53546;52.184;5.596;2022-11-23T12:16:43;4.97;;;1.63;;
66633;SDS011;53546;52.184;5.596;2022-11-23T12:19:39;7.90;;;1.90;;
66633;SDS011;53546;52.184;5.596;2022-11-23T12:24:55;5.93;;;2.20;;
66633;SDS011;53546;52.184;5.596;2022-11-23T12:31:02;5.82;;;2.03;;
66633;SDS011;53546;52.184;5.596;2022-11-23T12:41:43;4.80;;;1.67;;
66633;SDS011;53546;52.184;5.596;2022-11-23T12:57:51;5.78;;;1.85;;
66633;SDS011;53546;52.184;5.596;2022-11-23T13:00:19;5.03;;;1.95;;
66633;SDS011;53546;52.184;5.596;2022-11-23T13:10:45;8.05;;;1.60;;
66633;SDS011;53546;52.184;5.596;2022-11-23T13:24:01;7.38;;;1.60;;
66633;SDS011;53546;52.184;5.596;2022-11-23T13:26:27;2.92;;;1.45;;
66633;SDS011;53546;52.184;5.596;2022-11-23T13:28:53;15.98;;;1.90;;
66633;SDS011;53546;52.184;5.596;2022-11-23T13:31:29;14.90;;;1.75;;
66633;SDS011;53546;52.184;5.596;2022-11-23T13:34:00;4.13;;;1.50;;
66633;SDS011;53546;52.184;5.596;2022-11-23T13:38:57;11.30;;;1.40;;
66633;SDS011;53546;52.184;5.596;2022-11-23T13:41:55;10.35;;;1.58;;
66633;SDS011;53546;52.184;5.596;2022-11-23T13:44:29;8.30;;;1.90;;
66633;SDS011;53546;52.184;5.596;2022-11-23T13:47:05;24.63;;;2.10;;
66633;SDS011;53546;52.184;5.596;2022-11-23T13:55:00;8.35;;;1.52;;
66633;SDS011;53546;52.184;5.596;2022-11-23T13:57:36;6.88;;;1.60;;
66633;SDS011;53546;52.184;5.596;2022-11-23T14:06:19;7.45;;;1.75;;
66633;SDS011;53546;52.184;5.596;2022-11-23T14:09:14;4.50;;;1.60;;
66633;SDS011;53546;52.184;5.596;2022-11-23T14:20:03;9.93;;;2.42;;
66633;SDS011;53546;52.184;5.596;2022-11-23T14:31:06;11.52;;;1.83;;
66633;SDS011;53546;52.184;5.596;2022-11-23T14:41:41;7.28;;;1.50;;
66633;SDS011;53546;52.184;5.596;2022-11-23T14:44:07;4.70;;;1.65;;
66633;SDS011;53546;52.184;5.596;2022-11-23T14:46:49;7.40;;;1.60;;
66633;SDS011;53546;52.184;5.596;2022-11-23T14:49:35;6.90;;;1.92;;
66633;SDS011;53546;52.184;5.596;2022-11-23T14:52:05;6.88;;;1.52;;
66633;SDS011;53546;52.184;5.596;2022-11-23T14:54:33;9.65;;;1.70;;
66633;SDS011;53546;52.184;5.596;2022-11-23T14:57:01;3.83;;;1.60;;
66633;SDS011;53546;52.184;5.596;2022-11-23T14:59:35;5.07;;;1.52;;
66633;SDS011;53546;52.184;5.596;2022-11-23T15:05:29;3.78;;;1.30;;
66633;SDS011;53546;52.184;5.596;2022-11-23T15:08:18;8.13;;;1.65;;
66633;SDS011;53546;52.184;5.596;2022-11-23T15:13:53;2.78;;;1.35;;
66633;SDS011;53546;52.184;5.596;2022-11-23T15:16:22;2.85;;;1.25;;
66633;SDS011;53546;52.184;5.596;2022-11-23T15:18:47;2.97;;;1.42;;
66633;SDS011;53546;52.184;5.596;2022-11-23T15:21:17;5.53;;;1.30;;
66633;SDS011;53546;52.184;5.596;2022-11-23T15:23:48;4.47;;;1.33;;
66633;SDS011;53546;52.184;5.596;2022-11-23T15:26:17;6.35;;;1.35;;
66633;SDS011;53546;52.184;5.596;2022-11-23T15:28:54;6.45;;;1.30;;
66633;SDS011;53546;52.184;5.596;2022-11-23T15:31:29;2.25;;;1.40;;
66633;SDS011;53546;52.184;5.596;2022-11-23T15:34:01;4.22;;;1.38;;
66633;SDS011;53546;52.184;5.596;2022-11-23T15:36:32;4.13;;;1.23;;
66633;SDS011;53546;52.184;5.596;2022-11-23T15:39:11;6.47;;;1.45;;
66633;SDS011;53546;52.184;5.596;2022-11-23T15:41:40;5.88;;;1.85;;
66633;SDS011;53546;52.184;5.596;2022-11-23T15:44:15;2.83;;;1.48;;
66633;SDS011;53546;52.184;5.596;2022-11-23T15:46:52;5.43;;;1.40;;
66633;SDS011;53546;52.184;5.596;2022-11-23T15:49:22;2.70;;;1.50;;
66633;SDS011;53546;52.184;5.596;2022-11-23T15:51:48;3.58;;;1.67;;
66633;SDS011;53546;52.184;5.596;2022-11-23T15:54:19;2.95;;;1.33;;
66633;SDS011;53546;52.184;5.596;2022-11-23T15:56:46;3.58;;;1.60;;
66633;SDS011;53546;52.184;5.596;2022-11-23T15:59:30;3.85;;;1.60;;
66633;SDS011;53546;52.184;5.596;2022-11-23T16:01:58;3.78;;;1.60;;
66633;SDS011;53546;52.184;5.596;2022-11-23T16:04:26;6.50;;;1.65;;
66633;SDS011;53546;52.184;5.596;2022-11-23T16:06:53;5.13;;;2.20;;
66633;SDS011;53546;52.184;5.596;2022-11-23T16:09:39;5.57;;;1.73;;
66633;SDS011;53546;52.184;5.596;2022-11-23T16:17:23;5.03;;;2.20;;
66633;SDS011;53546;52.184;5.596;2022-11-23T16:22:35;6.55;;;2.33;;
66633;SDS011;53546;52.184;5.596;2022-11-23T16:27:32;4.50;;;2.20;;
66633;SDS011;53546;52.184;5.596;2022-11-23T16:29:57;7.45;;;2.33;;
66633;SDS011;53546;52.184;5.596;2022-11-23T16:32:28;4.07;;;2.30;;
66633;SDS011;53546;52.184;5.596;2022-11-23T16:34:57;3.25;;;2.10;;
66633;SDS011;53546;52.184;5.596;2022-11-23T16:37:24;4.05;;;2.15;;
66633;SDS011;53546;52.184;5.596;2022-11-23T16:39:50;5.10;;;2.58;;
66633;SDS011;53546;52.184;5.596;2022-11-23T16:42:15;3.83;;;2.40;;
66633;SDS011;53546;52.184;5.596;2022-11-23T16:44:41;3.38;;;2.00;;
66633;SDS011;53546;52.184;5.596;2022-11-23T16:47:25;5.05;;;2.25;;
66633;SDS011;53546;52.184;5.596;2022-11-23T16:49:52;5.07;;;1.90;;
66633;SDS011;53546;52.184;5.596;2022-11-23T16:52:18;3.60;;;1.70;;
66633;SDS011;53546;52.184;5.596;2022-11-23T16:54:44;4.85;;;2.13;;
66633;SDS011;53546;52.184;5.596;2022-11-23T16:57:17;5.95;;;2.17;;
66633;SDS011;53546;52.184;5.596;2022-11-23T16:59:47;3.15;;;1.73;;
66633;SDS011;53546;52.184;5.596;2022-11-23T17:02:12;4.90;;;1.80;;
66633;SDS011;53546;52.184;5.596;2022-11-23T17:04:39;5.57;;;2.20;;
66633;SDS011;53546;52.184;5.596;2022-11-23T17:07:04;3.65;;;1.70;;
66633;SDS011;53546;52.184;5.596;2022-11-23T17:09:29;3.63;;;1.88;;
66633;SDS011;53546;52.184;5.596;2022-11-23T17:11:55;4.90;;;1.67;;
66633;SDS011;53546;52.184;5.596;2022-11-23T17:14:20;7.55;;;1.67;;
66633;SDS011;53546;52.184;5.596;2022-11-23T17:16:47;2.78;;;1.55;;